sensor_id;sensor_type;location;lat;lon;timestamp;pressure;altitude;pressure_sealevel;temperature;humidity
14089;BME280;7120;52.890;6.040;2023-05-24T00:00:37;102424.63;;;7.64;100.00
14089;BME280;7120;52.890;6.040;2023-05-24T00:03:05;102419.84;;;7.71;100.00
14089;BME280;7120;52.890;6.040;2023-05-24T00:05:31;102416.41;;;7.76;100.00
14089;BME280;7120;52.890;6.040;2023-05-24T00:07:56;102420.94;;;7.87;100.00
14089;BME280;7120;52.890;6.040;2023-05-24T00:10:23;102421.38;;;7.95;100.00
14089;BME280;7120;52.890;6.040;2023-05-24T00:12:48;102417.91;;;8.00;100.00
14089;BME280;7120;52.890;6.040;2023-05-24T00:15:14;102409.44;;;7.96;100.00
14089;BME280;7120;52.890;6.040;2023-05-24T00:17:39;102408.25;;;7.92;100.00
14089;BME280;7120;52.890;6.040;2023-05-24T00:20:08;102406.75;;;7.85;100.00
14089;BME280;7120;52.890;6.040;2023-05-24T00:22:35;102414.56;;;7.81;100.00
14089;BME280;7120;52.890;6.040;2023-05-24T00:25:02;102405.38;;;7.82;100.00
14089;BME280;7120;52.890;6.040;2023-05-24T00:27:27;102393.41;;;7.83;100.00
14089;BME280;7120;52.890;6.040;2023-05-24T00:29:52;102406.09;;;7.94;100.00
14089;BME280;7120;52.890;6.040;2023-05-24T00:32:18;102410.25;;;7.97;100.00
14089;BME280;7120;52.890;6.040;2023-05-24T00:34:43;102402.25;;;7.90;100.00
14089;BME280;7120;52.890;6.040;2023-05-24T00:37:08;102398.69;;;7.90;100.00
14089;BME280;7120;52.890;6.040;2023-05-24T00:39:34;102390.25;;;7.91;100.00
14089;BME280;7120;52.890;6.040;2023-05-24T00:42:01;102390.00;;;7.93;100.00
14089;BME280;7120;52.890;6.040;2023-05-24T00:44:26;102381.69;;;7.99;100.00
14089;BME280;7120;52.890;6.040;2023-05-24T00:46:52;102387.94;;;8.00;100.00
14089;BME280;7120;52.890;6.040;2023-05-24T00:49:18;102396.53;;;8.09;100.00
14089;BME280;7120;52.890;6.040;2023-05-24T00:51:44;102396.38;;;7.98;100.00
14089;BME280;7120;52.890;6.040;2023-05-24T00:54:09;102402.50;;;8.06;100.00
14089;BME280;7120;52.890;6.040;2023-05-24T00:56:37;102404.66;;;8.04;100.00
14089;BME280;7120;52.890;6.040;2023-05-24T00:59:03;102404.97;;;8.07;100.00
14089;BME280;7120;52.890;6.040;2023-05-24T01:01:28;102403.72;;;8.15;100.00
14089;BME280;7120;52.890;6.040;2023-05-24T01:03:55;102396.38;;;8.15;100.00
14089;BME280;7120;52.890;6.040;2023-05-24T01:06:21;102410.75;;;8.27;100.00
14089;BME280;7120;52.890;6.040;2023-05-24T01:20:16;102407.09;;;8.72;100.00
14089;BME280;7120;52.890;6.040;2023-05-24T01:25:26;102398.38;;;8.92;100.00
14089;BME280;7120;52.890;6.040;2023-05-24T01:27:53;102398.44;;;8.97;100.00
14089;BME280;7120;52.890;6.040;2023-05-24T01:30:19;102391.47;;;9.06;100.00
14089;BME280;7120;52.890;6.040;2023-05-24T01:32:45;102400.41;;;9.02;100.00
14089;BME280;7120;52.890;6.040;2023-05-24T01:35:11;102399.84;;;9.00;100.00
14089;BME280;7120;52.890;6.040;2023-05-24T01:37:36;102389.44;;;8.97;100.00
14089;BME280;7120;52.890;6.040;2023-05-24T01:40:02;102390.75;;;8.94;100.00
14089;BME280;7120;52.890;6.040;2023-05-24T01:42:43;102389.56;;;8.85;100.00
14089;BME280;7120;52.890;6.040;2023-05-24T01:45:28;102401.59;;;8.67;100.00
14089;BME280;7120;52.890;6.040;2023-05-24T01:49:02;102393.53;;;8.77;100.00
14089;BME280;7120;52.890;6.040;2023-05-24T01:51:18;102393.75;;;8.93;100.00
14089;BME280;7120;52.890;6.040;2023-05-24T01:53:47;102380.34;;;8.91;100.00
14089;BME280;7120;52.890;6.040;2023-05-24T01:56:15;102377.56;;;8.86;100.00
14089;BME280;7120;52.890;6.040;2023-05-24T01:58:43;102377.09;;;8.94;100.00
14089;BME280;7120;52.890;6.040;2023-05-24T02:01:10;102371.09;;;8.92;100.00
14089;BME280;7120;52.890;6.040;2023-05-24T02:03:37;102361.19;;;8.86;100.00
14089;BME280;7120;52.890;6.040;2023-05-24T02:06:03;102356.31;;;8.88;100.00
14089;BME280;7120;52.890;6.040;2023-05-24T02:08:29;102371.34;;;8.91;100.00
14089;BME280;7120;52.890;6.040;2023-05-24T02:10:54;102354.53;;;8.77;100.00
14089;BME280;7120;52.890;6.040;2023-05-24T02:13:19;102363.22;;;8.74;100.00
14089;BME280;7120;52.890;6.040;2023-05-24T02:15:45;102362.16;;;8.75;100.00
14089;BME280;7120;52.890;6.040;2023-05-24T02:18:12;102354.59;;;8.60;100.00
14089;BME280;7120;52.890;6.040;2023-05-24T02:20:38;102361.69;;;8.61;100.00
14089;BME280;7120;52.890;6.040;2023-05-24T02:23:04;102362.16;;;8.58;100.00
14089;BME280;7120;52.890;6.040;2023-05-24T02:25:30;102355.88;;;8.58;100.00
14089;BME280;7120;52.890;6.040;2023-05-24T02:27:57;102361.09;;;8.59;100.00
14089;BME280;7120;52.890;6.040;2023-05-24T02:30:23;102354.34;;;8.45;100.00
14089;BME280;7120;52.890;6.040;2023-05-24T02:32:48;102363.69;;;8.49;100.00
14089;BME280;7120;52.890;6.040;2023-05-24T02:35:13;102352.69;;;8.44;100.00
14089;BME280;7120;52.890;6.040;2023-05-24T02:37:39;102361.53;;;8.51;100.00
14089;BME280;7120;52.890;6.040;2023-05-24T02:40:05;102361.53;;;8.51;100.00
14089;BME280;7120;52.890;6.040;2023-05-24T02:42:30;102360.38;;;8.47;100.00
14089;BME280;7120;52.890;6.040;2023-05-24T02:44:56;102356.25;;;8.44;100.00
14089;BME280;7120;52.890;6.040;2023-05-24T02:47:21;102359.41;;;8.36;100.00
14089;BME280;7120;52.890;6.040;2023-05-24T02:49:46;102346.16;;;8.45;100.00
14089;BME280;7120;52.890;6.040;2023-05-24T02:52:12;102354.59;;;8.43;100.00
14089;BME280;7120;52.890;6.040;2023-05-24T02:54:38;102354.16;;;8.35;100.00
14089;BME280;7120;52.890;6.040;2023-05-24T02:57:04;102361.69;;;8.44;100.00
14089;BME280;7120;52.890;6.040;2023-05-24T02:59:32;102360.63;;;8.45;100.00
14089;BME280;7120;52.890;6.040;2023-05-24T03:01:58;102365.25;;;8.45;100.00
14089;BME280;7120;52.890;6.040;2023-05-24T03:04:23;102362.22;;;8.41;100.00
14089;BME280;7120;52.890;6.040;2023-05-24T03:06:49;102362.47;;;8.40;100.00
14089;BME280;7120;52.890;6.040;2023-05-24T03:09:14;102361.78;;;8.33;100.00
14089;BME280;7120;52.890;6.040;2023-05-24T03:11:41;102350.16;;;8.37;100.00
14089;BME280;7120;52.890;6.040;2023-05-24T03:14:06;102360.81;;;8.39;100.00
14089;BME280;7120;52.890;6.040;2023-05-24T03:16:34;102356.34;;;8.33;100.00
14089;BME280;7120;52.890;6.040;2023-05-24T03:18:59;102346.25;;;8.33;100.00
14089;BME280;7120;52.890;6.040;2023-05-24T03:21:25;102358.91;;;8.39;100.00
14089;BME280;7120;52.890;6.040;2023-05-24T03:23:50;102347.91;;;8.34;100.00
14089;BME280;7120;52.890;6.040;2023-05-24T03:26:16;102348.50;;;8.36;100.00
14089;BME280;7120;52.890;6.040;2023-05-24T03:28:42;102353.00;;;8.31;100.00
14089;BME280;7120;52.890;6.040;2023-05-24T03:31:08;102348.63;;;8.30;100.00
14089;BME280;7120;52.890;6.040;2023-05-24T03:33:33;102344.69;;;8.37;100.00
14089;BME280;7120;52.890;6.040;2023-05-24T03:35:59;102340.06;;;8.38;100.00
14089;BME280;7120;52.890;6.040;2023-05-24T03:38:24;102339.25;;;8.37;100.00
14089;BME280;7120;52.890;6.040;2023-05-24T03:40:49;102345.94;;;8.46;100.00
14089;BME280;7120;52.890;6.040;2023-05-24T03:43:15;102350.56;;;8.46;100.00
14089;BME280;7120;52.890;6.040;2023-05-24T03:45:41;102355.75;;;8.47;100.00
14089;BME280;7120;52.890;6.040;2023-05-24T03:48:07;102357.63;;;8.64;100.00
14089;BME280;7120;52.890;6.040;2023-05-24T03:50:33;102350.44;;;8.58;100.00
14089;BME280;7120;52.890;6.040;2023-05-24T03:52:58;102348.22;;;8.55;100.00
14089;BME280;7120;52.890;6.040;2023-05-24T03:55:23;102350.22;;;8.42;100.00
14089;BME280;7120;52.890;6.040;2023-05-24T03:57:49;102351.78;;;8.55;100.00
14089;BME280;7120;52.890;6.040;2023-05-24T04:00:15;102344.06;;;8.52;100.00
14089;BME280;7120;52.890;6.040;2023-05-24T04:02:40;102352.09;;;8.59;100.00
14089;BME280;7120;52.890;6.040;2023-05-24T04:05:06;102359.69;;;8.57;100.00
14089;BME280;7120;52.890;6.040;2023-05-24T04:07:35;102352.44;;;8.45;100.00
14089;BME280;7120;52.890;6.040;2023-05-24T04:10:05;102356.41;;;8.55;100.00
14089;BME280;7120;52.890;6.040;2023-05-24T04:12:31;102367.78;;;8.68;100.00
14089;BME280;7120;52.890;6.040;2023-05-24T04:14:57;102361.25;;;8.91;100.00
14089;BME280;7120;52.890;6.040;2023-05-24T04:17:23;102360.09;;;8.87;100.00
14089;BME280;7120;52.890;6.040;2023-05-24T04:19:50;102360.44;;;9.13;100.00
14089;BME280;7120;52.890;6.040;2023-05-24T04:22:16;102356.81;;;9.07;100.00
14089;BME280;7120;52.890;6.040;2023-05-24T04:24:45;102363.78;;;9.20;100.00
14089;BME280;7120;52.890;6.040;2023-05-24T04:27:11;102365.44;;;9.21;100.00
14089;BME280;7120;52.890;6.040;2023-05-24T04:29:38;102367.06;;;9.22;100.00
14089;BME280;7120;52.890;6.040;2023-05-24T04:32:05;102365.13;;;9.44;100.00
14089;BME280;7120;52.890;6.040;2023-05-24T04:34:30;102362.38;;;9.39;100.00
14089;BME280;7120;52.890;6.040;2023-05-24T04:36:58;102357.22;;;9.43;100.00
14089;BME280;7120;52.890;6.040;2023-05-24T04:39:24;102357.06;;;9.54;100.00
14089;BME280;7120;52.890;6.040;2023-05-24T04:41:49;102357.16;;;9.64;100.00
14089;BME280;7120;52.890;6.040;2023-05-24T04:44:16;102357.31;;;9.80;100.00
14089;BME280;7120;52.890;6.040;2023-05-24T04:46:41;102357.63;;;9.83;100.00
14089;BME280;7120;52.890;6.040;2023-05-24T04:49:06;102354.53;;;9.75;100.00
14089;BME280;7120;52.890;6.040;2023-05-24T04:51:33;102355.97;;;9.82;100.00
14089;BME280;7120;52.890;6.040;2023-05-24T04:53:58;102355.94;;;10.09;100.00
14089;BME280;7120;52.890;6.040;2023-05-24T04:56:25;102357.44;;;10.27;100.00
14089;BME280;7120;52.890;6.040;2023-05-24T04:58:51;102348.09;;;10.60;100.00
14089;BME280;7120;52.890;6.040;2023-05-24T05:01:16;102348.94;;;10.71;100.00
14089;BME280;7120;52.890;6.040;2023-05-24T05:03:41;102357.41;;;11.27;100.00
14089;BME280;7120;52.890;6.040;2023-05-24T05:06:09;102362.47;;;11.81;100.00
14089;BME280;7120;52.890;6.040;2023-05-24T05:08:34;102373.66;;;11.74;100.00
14089;BME280;7120;52.890;6.040;2023-05-24T05:10:59;102376.47;;;11.85;100.00
14089;BME280;7120;52.890;6.040;2023-05-24T05:13:25;102383.03;;;11.83;100.00
14089;BME280;7120;52.890;6.040;2023-05-24T05:15:51;102369.59;;;11.82;100.00
14089;BME280;7120;52.890;6.040;2023-05-24T05:18:16;102361.88;;;11.64;100.00
14089;BME280;7120;52.890;6.040;2023-05-24T05:20:42;102373.91;;;11.63;100.00
14089;BME280;7120;52.890;6.040;2023-05-24T05:23:07;102371.72;;;11.60;100.00
14089;BME280;7120;52.890;6.040;2023-05-24T05:25:33;102378.34;;;11.64;100.00
14089;BME280;7120;52.890;6.040;2023-05-24T05:27:58;102390.13;;;11.64;100.00
14089;BME280;7120;52.890;6.040;2023-05-24T05:30:23;102390.44;;;11.83;100.00
14089;BME280;7120;52.890;6.040;2023-05-24T05:32:49;102397.31;;;11.96;100.00
14089;BME280;7120;52.890;6.040;2023-05-24T05:35:14;102401.91;;;11.80;100.00
14089;BME280;7120;52.890;6.040;2023-05-24T05:37:40;102396.09;;;11.51;100.00
14089;BME280;7120;52.890;6.040;2023-05-24T05:40:06;102399.63;;;11.41;100.00
14089;BME280;7120;52.890;6.040;2023-05-24T05:42:31;102403.13;;;11.26;100.00
14089;BME280;7120;52.890;6.040;2023-05-24T05:44:56;102411.44;;;11.52;100.00
14089;BME280;7120;52.890;6.040;2023-05-24T05:47:22;102399.94;;;11.50;100.00
14089;BME280;7120;52.890;6.040;2023-05-24T05:49:47;102407.03;;;11.41;100.00
14089;BME280;7120;52.890;6.040;2023-05-24T05:52:12;102398.81;;;11.46;100.00
14089;BME280;7120;52.890;6.040;2023-05-24T05:54:38;102402.72;;;11.75;100.00
14089;BME280;7120;52.890;6.040;2023-05-24T05:57:03;102389.50;;;11.42;100.00
14089;BME280;7120;52.890;6.040;2023-05-24T05:59:29;102405.97;;;11.52;100.00
14089;BME280;7120;52.890;6.040;2023-05-24T06:01:54;102400.75;;;11.50;100.00
14089;BME280;7120;52.890;6.040;2023-05-24T06:04:20;102404.88;;;11.58;100.00
14089;BME280;7120;52.890;6.040;2023-05-24T06:06:45;102404.91;;;11.63;100.00
14089;BME280;7120;52.890;6.040;2023-05-24T06:09:16;102400.50;;;11.57;100.00
14089;BME280;7120;52.890;6.040;2023-05-24T06:11:42;102399.41;;;11.58;100.00
14089;BME280;7120;52.890;6.040;2023-05-24T06:14:13;102403.81;;;11.69;100.00
14089;BME280;7120;52.890;6.040;2023-05-24T06:16:42;102402.22;;;11.89;100.00
14089;BME280;7120;52.890;6.040;2023-05-24T06:19:10;102408.53;;;11.89;100.00
14089;BME280;7120;52.890;6.040;2023-05-24T06:21:35;102400.63;;;12.13;100.00
14089;BME280;7120;52.890;6.040;2023-05-24T06:24:02;102404.72;;;12.31;100.00
14089;BME280;7120;52.890;6.040;2023-05-24T06:26:28;102407.16;;;12.12;100.00
14089;BME280;7120;52.890;6.040;2023-05-24T06:28:54;102401.69;;;12.12;100.00
14089;BME280;7120;52.890;6.040;2023-05-24T06:31:20;102409.38;;;12.05;100.00
14089;BME280;7120;52.890;6.040;2023-05-24T06:33:46;102412.41;;;12.24;100.00
14089;BME280;7120;52.890;6.040;2023-05-24T06:36:11;102402.78;;;12.36;100.00
14089;BME280;7120;52.890;6.040;2023-05-24T06:38:36;102405.78;;;12.50;100.00
14089;BME280;7120;52.890;6.040;2023-05-24T06:41:02;102412.91;;;12.67;100.00
14089;BME280;7120;52.890;6.040;2023-05-24T06:43:27;102411.75;;;12.93;100.00
14089;BME280;7120;52.890;6.040;2023-05-24T06:45:53;102405.44;;;12.87;100.00
14089;BME280;7120;52.890;6.040;2023-05-24T06:48:18;102407.34;;;12.97;100.00
14089;BME280;7120;52.890;6.040;2023-05-24T06:50:43;102402.69;;;12.82;100.00
14089;BME280;7120;52.890;6.040;2023-05-24T06:53:09;102412.06;;;12.71;100.00
14089;BME280;7120;52.890;6.040;2023-05-24T06:55:35;102411.28;;;12.30;100.00
14089;BME280;7120;52.890;6.040;2023-05-24T06:58:00;102410.19;;;12.26;100.00
14089;BME280;7120;52.890;6.040;2023-05-24T07:00:26;102405.00;;;12.29;100.00
14089;BME280;7120;52.890;6.040;2023-05-24T07:02:51;102413.78;;;12.21;100.00
14089;BME280;7120;52.890;6.040;2023-05-24T07:05:17;102414.03;;;12.25;100.00
14089;BME280;7120;52.890;6.040;2023-05-24T07:07:43;102400.34;;;12.20;100.00
14089;BME280;7120;52.890;6.040;2023-05-24T07:10:09;102419.78;;;12.18;100.00
14089;BME280;7120;52.890;6.040;2023-05-24T07:12:38;102410.72;;;12.53;100.00
14089;BME280;7120;52.890;6.040;2023-05-24T07:15:04;102418.09;;;12.78;100.00
14089;BME280;7120;52.890;6.040;2023-05-24T07:17:29;102403.22;;;13.00;100.00
14089;BME280;7120;52.890;6.040;2023-05-24T07:19:55;102399.88;;;13.08;100.00
14089;BME280;7120;52.890;6.040;2023-05-24T07:22:20;102414.66;;;13.32;100.00
14089;BME280;7120;52.890;6.040;2023-05-24T07:24:46;102411.44;;;13.05;100.00
14089;BME280;7120;52.890;6.040;2023-05-24T07:27:12;102402.56;;;13.78;100.00
14089;BME280;7120;52.890;6.040;2023-05-24T07:29:37;102402.63;;;14.41;99.32
14089;BME280;7120;52.890;6.040;2023-05-24T07:32:03;102397.28;;;14.20;97.29
14089;BME280;7120;52.890;6.040;2023-05-24T07:34:28;102398.88;;;14.26;92.03
14089;BME280;7120;52.890;6.040;2023-05-24T07:36:55;102401.78;;;14.40;96.12
14089;BME280;7120;52.890;6.040;2023-05-24T07:39:23;102403.28;;;14.27;90.66
14089;BME280;7120;52.890;6.040;2023-05-24T07:41:49;102404.13;;;14.23;92.77
14089;BME280;7120;52.890;6.040;2023-05-24T07:44:15;102400.75;;;15.13;89.75
14089;BME280;7120;52.890;6.040;2023-05-24T07:46:40;102410.66;;;14.66;92.17
14089;BME280;7120;52.890;6.040;2023-05-24T07:49:06;102400.50;;;14.62;90.73
14089;BME280;7120;52.890;6.040;2023-05-24T07:51:31;102401.94;;;14.59;90.40
14089;BME280;7120;52.890;6.040;2023-05-24T07:53:56;102408.41;;;14.39;92.02
14089;BME280;7120;52.890;6.040;2023-05-24T07:56:22;102404.75;;;15.45;86.70
14089;BME280;7120;52.890;6.040;2023-05-24T07:58:47;102410.53;;;15.67;80.45
14089;BME280;7120;52.890;6.040;2023-05-24T08:01:15;102404.94;;;15.91;77.36
14089;BME280;7120;52.890;6.040;2023-05-24T08:03:42;102412.13;;;14.82;79.69
14089;BME280;7120;52.890;6.040;2023-05-24T08:06:08;102411.91;;;14.50;84.39
14089;BME280;7120;52.890;6.040;2023-05-24T08:08:34;102418.59;;;14.05;87.79
14089;BME280;7120;52.890;6.040;2023-05-24T08:11:00;102418.69;;;14.28;87.14
14089;BME280;7120;52.890;6.040;2023-05-24T08:13:26;102423.78;;;14.45;83.99
14089;BME280;7120;52.890;6.040;2023-05-24T08:15:51;102422.34;;;14.82;80.00
14089;BME280;7120;52.890;6.040;2023-05-24T08:18:16;102412.34;;;14.28;80.00
14089;BME280;7120;52.890;6.040;2023-05-24T08:20:42;102419.91;;;13.73;84.29
14089;BME280;7120;52.890;6.040;2023-05-24T08:23:07;102421.22;;;13.86;86.26
14089;BME280;7120;52.890;6.040;2023-05-24T08:25:32;102433.22;;;14.00;85.48
14089;BME280;7120;52.890;6.040;2023-05-24T08:27:58;102423.72;;;13.82;84.76
14089;BME280;7120;52.890;6.040;2023-05-24T08:30:23;102431.34;;;13.95;83.33
14089;BME280;7120;52.890;6.040;2023-05-24T08:32:49;102431.59;;;13.94;85.52
14089;BME280;7120;52.890;6.040;2023-05-24T08:35:15;102430.88;;;13.83;83.44
14089;BME280;7120;52.890;6.040;2023-05-24T08:37:40;102439.91;;;13.89;84.67
14089;BME280;7120;52.890;6.040;2023-05-24T08:40:06;102441.44;;;14.05;83.95
14089;BME280;7120;52.890;6.040;2023-05-24T08:42:37;102447.34;;;14.22;85.35
14089;BME280;7120;52.890;6.040;2023-05-24T08:45:07;102434.97;;;14.25;85.25
14089;BME280;7120;52.890;6.040;2023-05-24T08:47:35;102450.16;;;14.17;87.21
14089;BME280;7120;52.890;6.040;2023-05-24T08:50:02;102445.75;;;14.50;85.72
14089;BME280;7120;52.890;6.040;2023-05-24T08:52:30;102449.41;;;14.41;85.08
14089;BME280;7120;52.890;6.040;2023-05-24T08:54:57;102446.34;;;14.42;84.19
14089;BME280;7120;52.890;6.040;2023-05-24T08:57:25;102442.72;;;14.18;81.32
14089;BME280;7120;52.890;6.040;2023-05-24T08:59:51;102441.22;;;14.30;83.94
14089;BME280;7120;52.890;6.040;2023-05-24T09:02:19;102454.53;;;14.18;82.92
14089;BME280;7120;52.890;6.040;2023-05-24T09:04:46;102452.34;;;14.15;85.55
14089;BME280;7120;52.890;6.040;2023-05-24T09:07:15;102450.03;;;14.33;86.62
14089;BME280;7120;52.890;6.040;2023-05-24T09:09:42;102452.84;;;13.83;86.50
14089;BME280;7120;52.890;6.040;2023-05-24T09:12:13;102458.91;;;13.80;86.75
14089;BME280;7120;52.890;6.040;2023-05-24T09:14:44;102453.47;;;13.70;85.76
14089;BME280;7120;52.890;6.040;2023-05-24T09:17:11;102460.38;;;13.67;87.07
14089;BME280;7120;52.890;6.040;2023-05-24T09:19:42;102463.06;;;13.78;90.00
14089;BME280;7120;52.890;6.040;2023-05-24T09:22:07;102462.09;;;14.02;85.90
14089;BME280;7120;52.890;6.040;2023-05-24T09:24:40;102460.25;;;13.88;84.91
14089;BME280;7120;52.890;6.040;2023-05-24T09:27:05;102463.69;;;13.64;87.35
14089;BME280;7120;52.890;6.040;2023-05-24T09:29:34;102457.66;;;13.57;87.91
14089;BME280;7120;52.890;6.040;2023-05-24T09:32:00;102461.41;;;14.21;87.48
14089;BME280;7120;52.890;6.040;2023-05-24T09:34:26;102466.84;;;13.87;90.01
14089;BME280;7120;52.890;6.040;2023-05-24T09:36:51;102466.97;;;13.66;90.15
14089;BME280;7120;52.890;6.040;2023-05-24T09:39:18;102469.25;;;14.04;86.13
14089;BME280;7120;52.890;6.040;2023-05-24T09:41:51;102464.56;;;14.04;84.13
14089;BME280;7120;52.890;6.040;2023-05-24T09:44:23;102474.00;;;13.88;88.14
14089;BME280;7120;52.890;6.040;2023-05-24T09:46:48;102463.03;;;14.22;85.78
14089;BME280;7120;52.890;6.040;2023-05-24T09:49:14;102465.91;;;14.41;82.22
14089;BME280;7120;52.890;6.040;2023-05-24T09:51:39;102461.03;;;14.33;86.02
14089;BME280;7120;52.890;6.040;2023-05-24T09:54:05;102459.06;;;14.38;84.96
14089;BME280;7120;52.890;6.040;2023-05-24T09:56:32;102458.34;;;14.62;84.61
14089;BME280;7120;52.890;6.040;2023-05-24T09:59:04;102458.00;;;13.95;83.22
14089;BME280;7120;52.890;6.040;2023-05-24T10:01:29;102458.56;;;13.92;89.36
14089;BME280;7120;52.890;6.040;2023-05-24T10:03:57;102457.59;;;14.17;86.60
14089;BME280;7120;52.890;6.040;2023-05-24T10:06:24;102460.44;;;14.01;86.41
14089;BME280;7120;52.890;6.040;2023-05-24T10:08:50;102463.66;;;14.14;87.88
14089;BME280;7120;52.890;6.040;2023-05-24T10:11:17;102463.53;;;13.90;88.77
14089;BME280;7120;52.890;6.040;2023-05-24T10:13:43;102456.50;;;14.13;88.66
14089;BME280;7120;52.890;6.040;2023-05-24T10:16:09;102458.06;;;13.85;89.26
14089;BME280;7120;52.890;6.040;2023-05-24T10:18:34;102457.69;;;14.01;88.92
14089;BME280;7120;52.890;6.040;2023-05-24T10:21:00;102457.59;;;14.17;85.88
14089;BME280;7120;52.890;6.040;2023-05-24T10:23:30;102457.47;;;14.66;84.20
14089;BME280;7120;52.890;6.040;2023-05-24T10:26:05;102450.91;;;14.86;81.89
14089;BME280;7120;52.890;6.040;2023-05-24T10:28:33;102450.31;;;15.18;78.91
14089;BME280;7120;52.890;6.040;2023-05-24T10:31:11;102461.91;;;15.15;78.34
14089;BME280;7120;52.890;6.040;2023-05-24T10:33:42;102457.44;;;15.86;74.25
14089;BME280;7120;52.890;6.040;2023-05-24T10:36:09;102451.63;;;15.45;75.23
14089;BME280;7120;52.890;6.040;2023-05-24T10:38:39;102455.13;;;15.74;74.40
14089;BME280;7120;52.890;6.040;2023-05-24T10:41:05;102453.13;;;15.80;75.71
14089;BME280;7120;52.890;6.040;2023-05-24T10:43:33;102454.53;;;16.15;72.00
14089;BME280;7120;52.890;6.040;2023-05-24T10:46:01;102460.06;;;16.61;71.75
14089;BME280;7120;52.890;6.040;2023-05-24T10:50:53;102461.56;;;16.40;69.62
14089;BME280;7120;52.890;6.040;2023-05-24T10:53:21;102450.25;;;15.85;74.80
14089;BME280;7120;52.890;6.040;2023-05-24T10:55:56;102455.53;;;16.19;72.55
14089;BME280;7120;52.890;6.040;2023-05-24T11:01:12;102453.28;;;15.46;77.23
14089;BME280;7120;52.890;6.040;2023-05-24T11:03:40;102453.94;;;15.37;75.89
14089;BME280;7120;52.890;6.040;2023-05-24T11:06:05;102450.66;;;15.97;74.72
14089;BME280;7120;52.890;6.040;2023-05-24T11:08:33;102443.28;;;15.74;71.80
14089;BME280;7120;52.890;6.040;2023-05-24T11:13:45;102446.63;;;17.83;65.05
14089;BME280;7120;52.890;6.040;2023-05-24T11:16:32;102454.00;;;16.45;70.94
14089;BME280;7120;52.890;6.040;2023-05-24T11:19:10;102440.41;;;16.16;72.39
14089;BME280;7120;52.890;6.040;2023-05-24T11:21:35;102443.72;;;15.57;74.01
14089;BME280;7120;52.890;6.040;2023-05-24T11:24:01;102448.34;;;15.67;74.57
14089;BME280;7120;52.890;6.040;2023-05-24T11:26:28;102441.19;;;15.65;78.78
14089;BME280;7120;52.890;6.040;2023-05-24T11:28:53;102447.59;;;15.80;74.86
14089;BME280;7120;52.890;6.040;2023-05-24T11:31:26;102434.72;;;18.50;63.79
14089;BME280;7120;52.890;6.040;2023-05-24T11:33:51;102439.06;;;19.53;61.06
14089;BME280;7120;52.890;6.040;2023-05-24T11:36:18;102443.47;;;18.44;60.00
14089;BME280;7120;52.890;6.040;2023-05-24T11:38:45;102441.97;;;17.93;61.06
14089;BME280;7120;52.890;6.040;2023-05-24T11:41:12;102450.84;;;16.71;66.64
14089;BME280;7120;52.890;6.040;2023-05-24T11:43:37;102438.91;;;17.67;61.58
14089;BME280;7120;52.890;6.040;2023-05-24T11:46:02;102442.09;;;19.17;59.25
14089;BME280;7120;52.890;6.040;2023-05-24T11:48:28;102446.13;;;18.49;62.96
14089;BME280;7120;52.890;6.040;2023-05-24T11:50:55;102446.47;;;17.11;61.90
14089;BME280;7120;52.890;6.040;2023-05-24T11:53:21;102443.25;;;16.77;61.63
14089;BME280;7120;52.890;6.040;2023-05-24T11:55:46;102444.09;;;16.44;64.89
14089;BME280;7120;52.890;6.040;2023-05-24T12:00:46;102431.84;;;18.86;56.57
14089;BME280;7120;52.890;6.040;2023-05-24T12:03:12;102427.25;;;18.59;54.83
14089;BME280;7120;52.890;6.040;2023-05-24T12:05:37;102441.25;;;17.10;58.15
14089;BME280;7120;52.890;6.040;2023-05-24T12:08:03;102447.28;;;17.12;61.65
14089;BME280;7120;52.890;6.040;2023-05-24T12:10:34;102443.81;;;16.92;59.50
14089;BME280;7120;52.890;6.040;2023-05-24T12:13:01;102440.66;;;18.35;60.17
14089;BME280;7120;52.890;6.040;2023-05-24T12:15:27;102439.78;;;19.10;56.55
14089;BME280;7120;52.890;6.040;2023-05-24T12:17:52;102432.06;;;18.99;56.01
14089;BME280;7120;52.890;6.040;2023-05-24T12:20:18;102438.03;;;19.32;51.30
14089;BME280;7120;52.890;6.040;2023-05-24T12:22:48;102436.16;;;20.27;49.45
14089;BME280;7120;52.890;6.040;2023-05-24T12:25:16;102438.63;;;20.12;52.26
14089;BME280;7120;52.890;6.040;2023-05-24T12:27:45;102436.81;;;19.07;50.99
14089;BME280;7120;52.890;6.040;2023-05-24T12:30:14;102438.31;;;18.51;53.06
14089;BME280;7120;52.890;6.040;2023-05-24T12:32:46;102436.88;;;18.31;53.58
14089;BME280;7120;52.890;6.040;2023-05-24T12:35:12;102446.03;;;17.18;57.11
14089;BME280;7120;52.890;6.040;2023-05-24T12:37:37;102438.22;;;16.13;60.31
14089;BME280;7120;52.890;6.040;2023-05-24T12:40:13;102444.84;;;15.80;65.77
14089;BME280;7120;52.890;6.040;2023-05-24T12:42:39;102440.50;;;15.92;65.88
14089;BME280;7120;52.890;6.040;2023-05-24T12:45:05;102443.38;;;18.26;57.39
14089;BME280;7120;52.890;6.040;2023-05-24T12:47:31;102433.88;;;17.82;59.02
14089;BME280;7120;52.890;6.040;2023-05-24T12:49:56;102454.13;;;16.54;62.69
14089;BME280;7120;52.890;6.040;2023-05-24T12:52:22;102450.94;;;16.14;65.19
14089;BME280;7120;52.890;6.040;2023-05-24T12:54:47;102450.81;;;15.87;66.12
14089;BME280;7120;52.890;6.040;2023-05-24T12:57:13;102449.16;;;15.67;65.44
14089;BME280;7120;52.890;6.040;2023-05-24T12:59:38;102447.84;;;15.59;67.04
14089;BME280;7120;52.890;6.040;2023-05-24T13:02:03;102450.38;;;15.56;70.15
14089;BME280;7120;52.890;6.040;2023-05-24T13:04:29;102456.78;;;16.78;66.36
14089;BME280;7120;52.890;6.040;2023-05-24T13:06:57;102445.13;;;16.95;64.72
14089;BME280;7120;52.890;6.040;2023-05-24T13:09:22;102448.19;;;16.14;66.43
14089;BME280;7120;52.890;6.040;2023-05-24T13:11:49;102455.56;;;15.81;69.27
14089;BME280;7120;52.890;6.040;2023-05-24T13:14:15;102456.34;;;15.44;65.26
14089;BME280;7120;52.890;6.040;2023-05-24T13:16:40;102450.06;;;15.38;64.25
14089;BME280;7120;52.890;6.040;2023-05-24T13:19:06;102450.06;;;15.38;67.97